createdAt,value
2022-12-17T00:03:08.576Z,1012.708
2022-12-17T00:23:07.569Z,1012.947
2022-12-17T00:43:07.541Z,1013.115
2022-12-17T01:03:08.480Z,1013.169
2022-12-17T01:23:07.339Z,1013.372
2022-12-17T01:43:07.137Z,1013.713
2022-12-17T02:03:09.252Z,1013.773
2022-12-17T02:23:07.561Z,1013.862
2022-12-17T02:43:07.330Z,1013.885
2022-12-17T03:03:08.341Z,1014.16
2022-12-17T03:23:07.171Z,1014.231
2022-12-17T03:43:08.123Z,1014.354
2022-12-17T04:03:09.010Z,1014.31
2022-12-17T04:23:07.864Z,1014.514
2022-12-17T04:43:07.739Z,1014.539
2022-12-17T05:03:08.706Z,1014.808
2022-12-17T05:23:07.566Z,1014.783
2022-12-17T05:43:07.675Z,1015.136
2022-12-17T06:03:08.898Z,1015.261
2022-12-17T06:23:07.805Z,1015.529
2022-12-17T06:43:07.709Z,1015.488
2022-12-17T07:03:15.592Z,1015.878
2022-12-17T07:23:07.397Z,1016.325
2022-12-17T07:43:07.270Z,1016.545
2022-12-17T08:03:08.810Z,1016.721
2022-12-17T08:23:07.798Z,1016.877
2022-12-17T08:43:07.731Z,1017.109
2022-12-17T09:03:08.753Z,1017.221
2022-12-17T09:23:07.709Z,1017.266
2022-12-17T09:43:07.655Z,1017.286
2022-12-17T10:03:08.948Z,1017.333
2022-12-17T10:23:07.838Z,1017.459
2022-12-17T10:43:07.639Z,1017.532
2022-12-17T11:03:08.923Z,1017.624
2022-12-17T11:23:07.752Z,1017.611
2022-12-17T11:43:07.579Z,1017.542
2022-12-17T12:03:09.044Z,1017.492
2022-12-17T12:23:07.978Z,1017.503
2022-12-17T12:43:07.967Z,1017.512
2022-12-17T13:03:09.095Z,1017.462
2022-12-17T13:23:08.001Z,1017.324
2022-12-17T13:43:07.917Z,1017.29
2022-12-17T14:03:09.117Z,1017.511
2022-12-17T14:23:07.925Z,1017.695
2022-12-17T14:43:07.841Z,1017.765
2022-12-17T15:03:09.408Z,1017.603
2022-12-17T15:23:07.340Z,1017.625
2022-12-17T15:43:07.624Z,1017.687
2022-12-17T16:03:08.912Z,1017.856
2022-12-17T16:23:07.868Z,1017.917
2022-12-17T16:43:08.002Z,1018.089
2022-12-17T17:03:09.590Z,1018.199
2022-12-17T17:23:07.550Z,1018.34
2022-12-17T17:43:07.536Z,1018.478
2022-12-17T18:03:09.049Z,1018.764
2022-12-17T18:23:08.110Z,1018.727
2022-12-17T18:43:08.039Z,1018.649
2022-12-17T19:03:09.491Z,1018.815
2022-12-17T19:23:07.305Z,1018.77
2022-12-17T19:43:07.470Z,1018.981
2022-12-17T20:03:08.878Z,1018.85
2022-12-17T20:23:07.971Z,1019.049
2022-12-17T20:43:07.937Z,1019.248
2022-12-17T21:03:09.491Z,1019.331
2022-12-17T21:23:07.603Z,1019.373
2022-12-17T21:43:07.782Z,1019.429
2022-12-17T22:03:08.869Z,1019.525
2022-12-17T22:23:08.175Z,1019.534
2022-12-17T22:44:59.025Z,1019.649
2022-12-17T23:03:09.310Z,1019.551
2022-12-17T23:23:07.236Z,1019.619
2022-12-17T23:43:14.339Z,1019.669
